Flight Track Log - Related Links

Times and Time Zones

All times are in EDT time to prevent confusion due to time zone crossing. See the FLG4281 flight status page for this flight to view local times or setup timezone preferences in your user account.

Time Position Orientation Groundspeed Altitude Reporting Facility
EDT Latitude Longitude Course Direction KTS MPH feet Rate Location/Type
Sat 03:17:09 PM 42.2294 -83.3367 48° Northeast 137 158 1,400  Level Cleveland Center
Sat 03:17:28 PM 42.2364 -83.3264 48° Northeast 139 160 2,100 2,051 Climbing Cleveland Center
Sat 03:18:28 PM 42.2742 -83.2722 47° Northeast 209 241 4,100 1,682 Climbing Cleveland Center
Sat 03:19:15 PM 42.2836 -83.2236 75° East 221 254 5,100 1,770 Climbing Cleveland Center
Sat 03:19:29 PM 42.2853 -83.1836 87° East 279 321 5,900 1,935 Climbing Cleveland Center
Sat 03:20:17 PM 42.2931 -83.1019 83° East 270 311 7,100 1,672 Climbing Cleveland Center
Sat 03:20:30 PM 42.2931 -83.0803 90° East 281 323 7,600 2,613 Climbing Cleveland Center
Sat 03:21:19 PM 42.3017 -82.9917 82° East 289 333 9,800 2,361 Climbing Cleveland Center
Sat 03:21:31 PM 42.3039 -82.9633 84° East 302 348 10,000 197 Climbing Cleveland Center
Sat 03:22:20 PM 42.3092 -82.8692 86° East 325 374 10,000  Level Cleveland Center
Sat 03:22:32 PM 42.3089 -82.8369 91° East 349 402 10,000  Level Cleveland Center
Sat 03:23:22 PM 42.3164 -82.7408 84° East 340 391 10,000  Level Cleveland Center
Sat 03:23:32 PM 42.3078 -82.7097 111° Southeast 347 399 10,000 -97 Level Cleveland Center
Sat 03:24:24 PM 42.2489 -82.6700 153° Southeast 333 383 9,900 -179 Descending Cleveland Center
Sat 03:24:39 PM 42.2164 -82.6697 180° South 284 327 9,800 -1,548 Descending Cleveland Center
Sat 03:25:26 PM 42.1800 -82.6944 207° Southwest 284 327 8,300 -2,164 Descending Cleveland Center
Sat 03:25:40 PM 42.1661 -82.7308 243° Southwest 282 325 7,600 -1,839 Descending Cleveland Center
Sat 03:26:28 PM 42.1503 -82.7886 250° West 278 320 6,400 -2,000 Descending Cleveland Center
Sat 03:26:40 PM 42.1381 -82.8256 246° West 268 308 5,600 -1,355 Descending Cleveland Center
Sat 03:27:30 PM 42.1142 -82.8981 246° West 270 311 5,000 -590 Descending Cleveland Center
Sat 03:27:41 PM 42.1061 -82.9169 240° Southwest 271 312 5,000  Level Cleveland Center
Sat 03:28:30 PM 42.0800 -82.9894 244° Southwest 266 306 5,000  Level Cleveland Center
Sat 03:29:33 PM 42.0481 -83.0753 243° Southwest 265 305 5,000  Level Cleveland Center
Sat 03:30:35 PM 42.0117 -83.1675 242° Southwest 269 310 5,000 -756 Level Cleveland Center
Sat 03:31:32 PM 41.9936 -83.2697 257° West 262 302 3,500 -968 Descending Cleveland Center
Sat 03:32:39 PM 41.9967 -83.3636 273° West 269 310 3,000 -248 Descending Cleveland Center
Sat 03:33:33 PM 42.0367 -83.4417 305° West 231 266 3,000  Level Cleveland Center
Sat 03:34:42 PM 42.0878 -83.4336 North 214 246 3,000 -443 Level Cleveland Center
Sat 03:35:35 PM 42.1300 -83.4014 30° Northeast 162 186 2,100 -895 Descending Cleveland Center
Sat 03:36:36 PM 42.1656 -83.3756 28° Northeast 131 151 1,300 -761 Descending Cleveland Center
Sat 03:36:46 PM 42.1692 -83.3717 39° Northeast 158 182 1,200 -500 Descending Cleveland Center
Sat 03:37:48 PM 42.2014 -83.3467 30° Northeast 140 161 700 -484 Descending Cleveland Center
Sat 03:39:00 PM 42.2124 -83.3534 285° West  Level Estimated
Sat 03:46:00 PM 42.2124 -83.3534 North  Level Estimated
Sat 03:47:00 PM 42.2124 -83.3534 285° West  Level Estimated
Sat 03:48:00 PM 42.2124 -83.3534 285° West  Level Estimated
Sat 03:49:00 PM 42.2124 -83.3534 90° East  Level Estimated
Sat 03:50:00 PM 42.2124 -83.3534 270° West  Level Estimated
Sat 03:51:00 PM 42.2124 -83.3534 North  Level Estimated
Sat 03:52:00 PM 42.2124 -83.3534 285° West  Level Estimated

Login

Don't have an account? Register now (free) for customized features, flight alerts, and more!